Hendricks, West Virginia
Current Conditions -  °F | °C
As of 12:33 PM on Wednesday 26 Nov 2014 (Local Time) from KEKN Reporting Station
Moderate Snow Moderate Snow  
Wind Chill:   Ceiling: 400
Heat Index:   Visibility: 0.5mi
Dew Point:   Wind: 3mph
Humidity: 100%   Direction: 310°NW
Pressure: 29.95"   Gusts: NA
Location:  39.08°N, 79.63°W
Report Text: KEKN 261733Z AUTO 31003KT 1/2SM SN FG BKN004 OVC008 01/01 A2995 RMK AO2 P0004 T00060006 TSNO
Loading
Personal Weather Stations






























Interactive Weather Map New forecast layout! Learn more

10-Day Weather Forecast

Advertisements
Track Severe Weather on mobile